| time (UTC) | temp C | wind direction | speed KPH | gust KPH | rain 1hr cm | rain 24hr cm | rain mn cm | humidity % | barometer mb |
| 20260503211816 | 30 | 181 | 9.7 | 17.7 | 0.00 | 0.00 | 0.00 | 75 | 1010.2 |
| 20260503210816 | 30 | 181 | 4.8 | 11.3 | 0.00 | 0.00 | 0.00 | 74 | 1010.3 |
| 20260503205816 | 30 | 181 | 1.6 | 9.7 | 0.00 | 0.00 | 0.00 | 74 | 1010.5 |
| 20260503204836 | 30 | 181 | 3.2 | 11.3 | 0.00 | 0.00 | 0.00 | 74 | 1010.7 |
| 20260503203837 | 30 | 181 | 4.8 | 9.7 | 0.00 | 0.00 | 0.00 | 72 | 1010.7 |
| 20260503202816 | 30 | 181 | 4.8 | 12.9 | 0.00 | 0.00 | 0.00 | 71 | 1010.7 |
| 20260503201817 | 30 | 181 | 1.6 | 8.0 | 0.00 | 0.00 | 0.00 | 73 | 1010.8 |
| 20260503200837 | 30 | 181 | 3.2 | 11.3 | 0.00 | 0.00 | 0.00 | 72 | 1010.9 |
| 20260503195817 | 30 | 181 | 3.2 | 9.7 | 0.00 | 0.00 | 0.00 | 71 | 1011.1 |
| 20260503194819 | 30 | 181 | 3.2 | 8.0 | 0.00 | 0.00 | 0.00 | 72 | 1011.2 |
| 20260503193816 | 30 | 181 | 3.2 | 9.7 | 0.00 | 0.00 | 0.00 | 74 | 1011.3 |
| 20260503192817 | 30 | 181 | 1.6 | 8.0 | 0.00 | 0.00 | 0.00 | 75 | 1011.4 |
| 20260503191817 | 30 | 181 | 4.8 | 11.3 | 0.00 | 0.00 | 0.00 | 76 | 1011.4 |
| 20260503190816 | 29 | 181 | 6.4 | 12.9 | 0.00 | 0.00 | 0.00 | 77 | 1011.5 |
| 20260503185816 | 29 | 181 | 1.6 | 9.7 | 0.00 | 0.00 | 0.00 | 78 | 1011.6 |
| 20260503184837 | 29 | 181 | 3.2 | 11.3 | 0.00 | 0.00 | 0.00 | 78 | 1011.7 |
| 20260503183817 | 28 | 181 | 1.6 | 11.3 | 0.00 | 0.00 | 0.00 | 77 | 1011.7 |
| 20260503182817 | 28 | 181 | 3.2 | 9.7 | 0.00 | 0.00 | 0.00 | 79 | 1011.8 |
| 20260503181820 | 28 | 181 | 0.0 | 8.0 | 0.00 | 0.00 | 0.00 | 81 | 1011.9 |
| 20260503180816 | 28 | 181 | 1.6 | 8.0 | 0.00 | 0.00 | 0.00 | 80 | 1011.9 |
| 20260503175837 | 28 | 181 | 1.6 | 8.0 | 0.00 | 0.00 | 0.00 | 81 | 1012.0 |
| 20260503174817 | 28 | 0.0 | 0.0 | 0.00 | 0.00 | 0.00 | 80 | 1011.9 | |
| 20260503173816 | 29 | 181 | 3.2 | 9.7 | 0.00 | 0.00 | 0.00 | 79 | 1011.9 |
| 20260503172817 | 29 | 181 | 3.2 | 8.0 | 0.00 | 0.00 | 0.00 | 79 | 1011.9 |
| 20260503171837 | 28 | 181 | 1.6 | 8.0 | 0.00 | 0.00 | 0.00 | 80 | 1011.9 |
| 20260503170817 | 28 | 181 | 1.6 | 9.7 | 0.00 | 0.00 | 0.00 | 82 | 1011.7 |
| 20260503150817 | 27 | 181 | 1.6 | 4.8 | 0.00 | 0.00 | 0.00 | 91 | 1013.8 |
| 20260503130818 | 24 | 0.0 | 0.0 | 0.00 | 0.00 | 0.00 | 95 | 1014.1 | |
| 20260503110819 | 25 | 0.0 | 0.0 | 0.00 | 0.00 | 0.00 | 92 | 1014.1 | |
| 20260503080819 | 25 | 0.0 | 0.0 | 0.00 | 0.00 | 0.00 | 91 | 1013.7 | |
| 20260503072819 | 25 | 0.0 | 0.0 | 0.00 | 0.00 | 0.00 | 89 | 1013.6 | |
| 20260503071819 | 26 | 0.0 | 0.0 | 0.00 | 0.00 | 0.00 | 89 | 1013.6 | |
| 20260503070820 | 26 | 0.0 | 0.0 | 0.00 | 0.00 | 0.00 | 89 | 1013.6 | |
| 20260503054820 | 26 | 0.0 | 0.0 | 0.00 | 0.00 | 0.00 | 86 | 1013.1 | |
| 20260503053820 | 26 | 0.0 | 0.0 | 0.00 | 0.00 | 0.00 | 85 | 1013.1 | |
| 20260503052820 | 26 | 181 | 0.0 | 1.6 | 0.00 | 0.00 | 0.00 | 84 | 1013.1 |
| 20260503051820 | 26 | 181 | 0.0 | 8.0 | 0.00 | 0.00 | 0.00 | 85 | 1013.1 |
| 20260503050820 | 26 | 0.0 | 0.0 | 0.00 | 0.00 | 0.00 | 85 | 1013.0 | |
| 20260503045840 | 26 | 0.0 | 0.0 | 0.00 | 0.00 | 0.00 | 85 | 1013.0 | |
| 20260503044820 | 27 | 0.0 | 0.0 | 0.00 | 0.00 | 0.00 | 85 | 1012.9 | |
| 20260503043821 | 27 | 0.0 | 0.0 | 0.00 | 0.00 | 0.00 | 85 | 1012.8 | |
| 20260503042820 | 27 | 0.0 | 0.0 | 0.00 | 0.00 | 0.00 | 85 | 1012.7 | |
| 20260503041821 | 27 | 0.0 | 0.0 | 0.00 | 0.00 | 0.00 | 81 | 1012.6 | |
| 20260503040820 | 27 | 0.0 | 0.0 | 0.00 | 0.00 | 0.00 | 80 | 1012.6 | |
| 20260503035820 | 27 | 181 | 0.0 | 8.0 | 0.00 | 0.00 | 0.00 | 81 | 1012.4 |
| 20260503034901 | 27 | 181 | 1.6 | 9.7 | 0.00 | 0.00 | 0.00 | 81 | 1012.3 |
| 20260503033821 | 27 | 181 | 1.6 | 8.0 | 0.00 | 0.00 | 0.00 | 81 | 1012.1 |
| 20260503032821 | 27 | 181 | 1.6 | 12.9 | 0.00 | 0.00 | 0.00 | 81 | 1012.0 |
| 20260503031820 | 27 | 181 | 1.6 | 11.3 | 0.00 | 0.00 | 0.00 | 81 | 1011.9 |
| 20260503030821 | 27 | 181 | 1.6 | 9.7 | 0.00 | 0.00 | 0.00 | 82 | 1011.9 |
| 20260503025821 | 27 | 181 | 1.6 | 16.1 | 0.00 | 0.00 | 0.00 | 82 | 1011.7 |
| 20260503024820 | 27 | 181 | 1.6 | 11.3 | 0.00 | 0.00 | 0.00 | 82 | 1011.7 |
| 20260503023821 | 28 | 181 | 1.6 | 11.3 | 0.00 | 0.00 | 0.00 | 82 | 1011.8 |
| 20260503022820 | 28 | 181 | 0.0 | 9.7 | 0.00 | 0.00 | 0.00 | 82 | 1011.8 |
| 20260503021821 | 28 | 181 | 0.0 | 4.8 | 0.00 | 0.00 | 0.00 | 82 | 1011.8 |
| 20260503020821 | 28 | 181 | 0.0 | 4.8 | 0.00 | 0.00 | 0.00 | 82 | 1011.8 |
| 20260503015821 | 28 | 181 | 0.0 | 4.8 | 0.00 | 0.00 | 0.00 | 82 | 1011.9 |
| 20260503014822 | 28 | 0.0 | 0.0 | 0.00 | 0.00 | 0.00 | 82 | 1012.0 | |
| 20260503013821 | 28 | 181 | 0.0 | 4.8 | 0.00 | 0.00 | 0.00 | 82 | 1012.0 |
| 20260503012822 | 28 | 0.0 | 0.0 | 0.00 | 0.00 | 0.00 | 81 | 1012.0 | |
| 20260503011821 | 28 | 181 | 0.0 | 4.8 | 0.00 | 0.00 | 0.00 | 80 | 1012.2 |
| 20260503010821 | 28 | 181 | 1.6 | 9.7 | 0.00 | 0.00 | 0.00 | 79 | 1012.2 |
| 20260503005821 | 28 | 181 | 1.6 | 9.7 | 0.00 | 0.00 | 0.00 | 80 | 1012.2 |
| 20260503004842 | 28 | 181 | 1.6 | 9.7 | 0.00 | 0.00 | 0.00 | 80 | 1012.3 |
| 20260503003822 | 29 | 181 | 1.6 | 9.7 | 0.00 | 0.00 | 0.00 | 80 | 1012.3 |
| 20260503002821 | 29 | 181 | 3.2 | 14.5 | 0.00 | 0.00 | 0.00 | 80 | 1012.3 |
| 20260503001822 | 29 | 181 | 3.2 | 9.7 | 0.00 | 0.00 | 0.00 | 80 | 1012.4 |
| 20260503000823 | 29 | 181 | 0.0 | 6.4 | 0.00 | 0.00 | 0.00 | 80 | 1012.5 |
| 20260502235821 | 28 | 181 | 3.2 | 12.9 | 0.00 | 0.00 | 0.00 | 81 | 1012.5 |
| 20260502234823 | 29 | 181 | 3.2 | 12.9 | 0.00 | 0.00 | 0.00 | 81 | 1012.6 |
| 20260502233822 | 29 | 181 | 3.2 | 11.3 | 0.00 | 0.00 | 0.00 | 81 | 1012.8 |
| 20260502232822 | 29 | 181 | 1.6 | 9.7 | 0.00 | 0.00 | 0.00 | 82 | 1012.9 |
| 20260502231823 | 29 | 181 | 6.4 | 16.1 | 0.00 | 0.00 | 0.00 | 81 | 1013.1 |
| 20260502230843 | 29 | 181 | 4.8 | 11.3 | 0.00 | 0.00 | 0.00 | 81 | 1013.1 |
| 20260502225821 | 28 | 181 | 1.6 | 4.8 | 0.00 | 0.00 | 0.00 | 83 | 1013.4 |
| 20260502224822 | 28 | 181 | 1.6 | 9.7 | 0.00 | 0.00 | 0.00 | 83 | 1013.6 |
| 20260502222822 | 28 | 181 | 1.6 | 8.0 | 0.00 | 0.00 | 0.00 | 83 | 1014.0 |
| 20260502221822 | 28 | 181 | 4.8 | 17.7 | 0.00 | 0.00 | 0.00 | 83 | 1014.2 |
| 20260502220842 | 28 | 181 | 3.2 | 12.9 | 0.00 | 0.00 | 0.00 | 83 | 1014.4 |
| 20260502215824 | 28 | 181 | 3.2 | 11.3 | 0.00 | 0.00 | 0.00 | 83 | 1014.5 |
| 20260502214823 | 28 | 181 | 3.2 | 11.3 | 0.00 | 0.00 | 0.00 | 83 | 1014.6 |
| 20260502213822 | 28 | 181 | 4.8 | 16.1 | 0.00 | 0.00 | 0.00 | 83 | 1014.7 |
| 20260502212822 | 28 | 181 | 1.6 | 9.7 | 0.00 | 0.00 | 0.00 | 84 | 1014.9 |